createdAt,value
2019-02-08T00:00:15.333Z,1010.39
2019-02-08T00:01:15.242Z,1010.37
2019-02-08T00:02:15.340Z,1010.34
2019-02-08T00:03:15.193Z,1010.35
2019-02-08T00:04:15.249Z,1010.35
2019-02-08T00:05:15.133Z,1010.35
2019-02-08T00:06:15.173Z,1010.29
2019-02-08T00:07:15.072Z,1010.33
2019-02-08T00:08:15.180Z,1010.33
2019-02-08T00:09:15.082Z,1010.31
2019-02-08T00:10:14.981Z,1010.35
2019-02-08T00:11:15.001Z,1010.32
2019-02-08T00:12:14.935Z,1010.32
2019-02-08T00:13:15.011Z,1010.36
2019-02-08T00:14:14.872Z,1010.36
2019-02-08T00:15:14.837Z,1010.33
2019-02-08T00:16:14.948Z,1010.38
2019-02-08T00:17:14.783Z,1010.34
2019-02-08T00:18:14.840Z,1010.35
2019-02-08T00:19:14.720Z,1010.38
2019-02-08T00:20:14.721Z,1010.37
2019-02-08T00:21:14.661Z,1010.31
2019-02-08T00:22:14.796Z,1010.36
2019-02-08T00:23:25.964Z,1010.35
2019-02-08T00:24:14.573Z,1010.37
2019-02-08T00:25:14.692Z,1010.32
2019-02-08T00:26:14.600Z,1010.37
2019-02-08T00:27:14.494Z,1010.35
2019-02-08T00:28:14.613Z,1010.35
2019-02-08T00:29:14.440Z,1010.36
2019-02-08T00:30:14.522Z,1010.34
2019-02-08T00:31:14.381Z,1010.31
2019-02-08T00:32:14.434Z,1010.33
2019-02-08T00:33:14.316Z,1010.31
2019-02-08T00:34:14.441Z,1010.28
2019-02-08T00:35:14.250Z,1010.32
2019-02-08T00:36:14.362Z,1010.35
2019-02-08T00:37:14.193Z,1010.37
2019-02-08T00:38:14.281Z,1010.37
2019-02-08T00:39:14.129Z,1010.36
2019-02-08T00:40:14.181Z,1010.31
2019-02-08T00:41:14.070Z,1010.30
2019-02-08T00:42:14.192Z,1010.32
2019-02-08T00:43:14.010Z,1010.29
2019-02-08T00:44:14.121Z,1010.24
2019-02-08T00:45:13.963Z,1010.22
2019-02-08T00:46:14.030Z,1010.20
2019-02-08T00:47:13.915Z,1010.25
2019-02-08T00:48:13.871Z,1010.22
2019-02-08T00:49:13.942Z,1010.25
2019-02-08T00:50:13.808Z,1010.28
2019-02-08T00:51:13.949Z,1010.25
2019-02-08T00:52:13.749Z,1010.33
2019-02-08T00:53:13.870Z,1010.26
2019-02-08T00:54:13.701Z,1010.27
2019-02-08T00:55:13.788Z,1010.28
2019-02-08T00:56:13.646Z,1010.30
2019-02-08T00:57:13.801Z,1010.31
2019-02-08T00:58:13.581Z,1010.31
2019-02-08T00:59:13.550Z,1010.26
2019-02-08T01:00:13.550Z,1010.23
2019-02-08T01:01:13.611Z,1010.23
2019-02-08T01:02:13.470Z,1010.23
2019-02-08T01:03:13.645Z,1010.20
2019-02-08T01:04:13.403Z,1010.21
2019-02-08T01:05:13.388Z,1010.25
2019-02-08T01:06:13.451Z,1010.18
2019-02-08T01:07:13.314Z,1010.22
2019-02-08T01:08:13.460Z,1010.16
2019-02-08T01:09:13.264Z,1010.14
2019-02-08T01:10:13.223Z,1010.16
2019-02-08T01:11:13.203Z,1010.20
2019-02-08T01:12:13.190Z,1010.15
2019-02-08T01:13:13.141Z,1010.15
2019-02-08T01:14:13.294Z,1010.16
2019-02-08T01:15:13.081Z,1010.19
2019-02-08T01:16:13.053Z,1010.20
2019-02-08T01:17:13.021Z,1010.17
2019-02-08T01:18:13.122Z,1010.19
2019-02-08T01:19:12.961Z,1010.20
2019-02-08T01:20:13.140Z,1010.21
2019-02-08T01:21:12.901Z,1010.24
2019-02-08T01:22:13.057Z,1010.15
2019-02-08T01:23:12.844Z,1010.18
2019-02-08T01:24:12.950Z,1010.16
2019-02-08T01:25:12.789Z,1010.21
2019-02-08T01:26:12.871Z,1010.16
2019-02-08T01:27:12.874Z,1010.21
2019-02-08T01:28:12.708Z,1010.25
2019-02-08T01:29:12.783Z,1010.17
2019-02-08T01:30:12.653Z,1010.12
2019-02-08T01:31:12.808Z,1010.15
2019-02-08T01:32:12.572Z,1010.16
2019-02-08T01:33:12.712Z,1010.16
2019-02-08T01:34:12.521Z,1010.20
2019-02-08T01:35:13.654Z,1010.17
2019-02-08T01:36:12.461Z,1010.14
2019-02-08T01:37:12.651Z,1010.19
2019-02-08T01:38:12.541Z,1010.13
2019-02-08T01:39:12.373Z,1010.11
2019-02-08T01:40:12.552Z,1010.11
2019-02-08T01:41:12.315Z,1010.17
2019-02-08T01:42:12.366Z,1010.07
2019-02-08T01:43:12.250Z,1010.07
2019-02-08T01:44:12.223Z,1010.13
2019-02-08T01:45:12.282Z,1010.11
2019-02-08T01:46:12.177Z,1010.03
2019-02-08T01:47:12.190Z,1010.04
2019-02-08T01:48:12.111Z,1010.08
2019-02-08T01:49:12.082Z,1010.10
2019-02-08T01:50:12.054Z,1010.06
2019-02-08T01:51:13.143Z,1010.14
2019-02-08T01:52:11.993Z,1010.16
2019-02-08T01:53:12.045Z,1010.11
2019-02-08T01:54:11.931Z,1010.20
2019-02-08T01:55:11.902Z,1010.17
2019-02-08T01:56:11.873Z,1010.15
2019-02-08T01:57:11.962Z,1010.14
2019-02-08T01:58:11.814Z,1010.03
2019-02-08T01:59:11.872Z,1010.12
2019-02-08T02:00:11.750Z,1010.15
2019-02-08T02:01:11.781Z,1010.08
2019-02-08T02:02:11.693Z,1010.20
2019-02-08T02:03:11.818Z,1010.16
2019-02-08T02:04:11.634Z,1010.15
2019-02-08T02:05:11.722Z,1010.07
2019-02-08T02:06:11.583Z,1010.15
2019-02-08T02:07:11.547Z,1010.16
2019-02-08T02:08:11.631Z,1010.18
2019-02-08T02:09:11.493Z,1010.15
2019-02-08T02:10:11.540Z,1010.11
2019-02-08T02:11:11.433Z,1010.13
2019-02-08T02:12:11.408Z,1010.20
2019-02-08T02:13:11.461Z,1010.08
2019-02-08T02:14:11.340Z,1010.11
2019-02-08T02:15:11.372Z,1010.12
2019-02-08T02:16:11.284Z,1010.11
2019-02-08T02:17:11.254Z,1010.14
2019-02-08T02:18:11.310Z,1010.10
2019-02-08T02:19:11.190Z,1010.07
2019-02-08T02:20:11.302Z,1010.07
2019-02-08T02:21:11.132Z,1010.05
2019-02-08T02:22:11.121Z,1010.04
2019-02-08T02:23:11.073Z,1010.05
2019-02-08T02:24:11.146Z,1010.03
2019-02-08T02:25:11.009Z,1010.12
2019-02-08T02:26:11.158Z,1010.07
2019-02-08T02:27:10.965Z,1009.99
2019-02-08T02:28:10.932Z,1010.06
2019-02-08T02:29:10.900Z,1010.08
2019-02-08T02:30:10.970Z,1010.12
2019-02-08T02:31:10.844Z,1010.01
2019-02-08T02:32:10.883Z,1010.06
2019-02-08T02:33:10.798Z,1010.05
2019-02-08T02:34:10.894Z,1010.05
2019-02-08T02:35:10.725Z,1010.04
2019-02-08T02:36:10.803Z,1009.99
2019-02-08T02:37:10.665Z,1010.01
2019-02-08T02:38:10.713Z,1010.02
2019-02-08T02:39:10.719Z,1010.07
2019-02-08T02:40:10.581Z,1010.05
2019-02-08T02:41:10.637Z,1010.06
2019-02-08T02:42:10.521Z,1010.02
2019-02-08T02:43:10.650Z,1010.03
2019-02-08T02:44:10.467Z,1010.05
2019-02-08T02:45:10.431Z,1010.11
2019-02-08T02:46:10.401Z,1010.04
2019-02-08T02:47:10.478Z,1010.04
2019-02-08T02:48:10.345Z,1010.11
2019-02-08T02:49:10.482Z,1010.07
2019-02-08T02:50:10.395Z,1010.07
2019-02-08T02:51:10.263Z,1010.07
2019-02-08T02:52:10.318Z,1010.01
2019-02-08T02:53:10.201Z,1009.99
2019-02-08T02:54:10.310Z,1010.00
2019-02-08T02:55:10.143Z,1010.01
2019-02-08T02:56:10.110Z,1010.06
2019-02-08T02:57:10.245Z,1010.02
2019-02-08T02:58:10.056Z,1010.01
2019-02-08T02:59:10.151Z,1009.98
2019-02-08T03:00:09.997Z,1010.00
2019-02-08T03:01:09.961Z,1010.05
2019-02-08T03:02:09.930Z,1009.97
2019-02-08T03:03:10.087Z,1009.98
2019-02-08T03:04:09.873Z,1010.01
2019-02-08T03:05:09.996Z,1009.99
2019-02-08T03:06:09.812Z,1010.06
2019-02-08T03:07:09.782Z,1009.93
2019-02-08T03:08:09.759Z,1010.00
2019-02-08T03:09:09.927Z,1009.88
2019-02-08T03:10:09.692Z,1009.91
2019-02-08T03:11:09.823Z,1009.98
2019-02-08T03:12:09.655Z,1009.93
2019-02-08T03:13:09.739Z,1009.89
2019-02-08T03:14:09.582Z,1009.88
2019-02-08T03:15:10.672Z,1009.88
2019-02-08T03:16:09.520Z,1009.86
2019-02-08T03:17:09.673Z,1009.80
2019-02-08T03:18:09.560Z,1009.79
2019-02-08T03:19:09.442Z,1009.82
2019-02-08T03:20:09.581Z,1009.84
2019-02-08T03:21:09.377Z,1009.83
2019-02-08T03:22:09.492Z,1009.78
2019-02-08T03:23:09.311Z,1009.77
2019-02-08T03:24:12.994Z,1009.83
2019-02-08T03:25:09.412Z,1009.79
2019-02-08T03:26:09.250Z,1009.82
2019-02-08T03:27:09.320Z,1009.75
2019-02-08T03:28:09.176Z,1009.77
2019-02-08T03:29:09.143Z,1009.70
2019-02-08T03:30:09.112Z,1009.70
2019-02-08T03:31:09.262Z,1009.75
2019-02-08T03:32:09.053Z,1009.76
2019-02-08T03:33:09.169Z,1009.73
2019-02-08T03:34:08.997Z,1009.68
2019-02-08T03:35:08.978Z,1009.73
2019-02-08T03:36:09.088Z,1009.66
2019-02-08T03:37:08.912Z,1009.62
2019-02-08T03:38:09.102Z,1009.72
2019-02-08T03:39:08.867Z,1009.63
2019-02-08T03:40:08.824Z,1009.62
2019-02-08T03:41:08.793Z,1009.65
2019-02-08T03:42:08.914Z,1009.75
2019-02-08T03:43:08.744Z,1009.62
2019-02-08T03:44:08.948Z,1009.63
2019-02-08T03:45:08.672Z,1009.58
2019-02-08T03:46:08.645Z,1009.61
2019-02-08T03:47:08.643Z,1009.51
2019-02-08T03:49:40.585Z,1009.60
2019-02-08T03:50:40.388Z,1009.62
2019-02-08T03:51:40.362Z,1009.48
2019-02-08T03:52:40.464Z,1009.57
2019-02-08T03:53:40.296Z,1009.51
2019-02-08T03:54:40.385Z,1009.56
2019-02-08T03:55:40.245Z,1009.57
2019-02-08T03:56:40.206Z,1009.54
2019-02-08T03:57:40.187Z,1009.55
2019-02-08T03:58:40.310Z,1009.51
2019-02-08T03:59:40.116Z,1009.46
2019-02-08T04:00:40.215Z,1009.46
2019-02-08T04:01:40.065Z,1009.50
2019-02-08T04:02:40.040Z,1009.51
2019-02-08T04:03:40.008Z,1009.46
2019-02-08T04:04:40.146Z,1009.50
2019-02-08T04:05:39.947Z,1009.53
2019-02-08T04:06:40.054Z,1009.55
2019-02-08T04:07:39.888Z,1009.56
2019-02-08T04:08:39.967Z,1009.59
2019-02-08T04:09:39.836Z,1009.57
2019-02-08T04:10:39.990Z,1009.59
2019-02-08T04:11:39.783Z,1009.58
2019-02-08T04:12:39.895Z,1009.59
2019-02-08T04:13:39.717Z,1009.61
2019-02-08T04:14:39.807Z,1009.67
2019-02-08T04:15:39.664Z,1009.65
2019-02-08T04:16:39.815Z,1009.67
2019-02-08T04:17:39.617Z,1009.63
2019-02-08T04:18:39.632Z,1009.67
2019-02-08T04:19:39.554Z,1009.64
2019-02-08T04:20:39.645Z,1009.71
2019-02-08T04:21:39.490Z,1009.64
2019-02-08T04:22:39.656Z,1009.66
2019-02-08T04:23:39.429Z,1009.67
2019-02-08T04:24:39.396Z,1009.66
2019-02-08T04:25:39.365Z,1009.59
2019-02-08T04:26:39.484Z,1009.59
2019-02-08T04:27:39.323Z,1009.58
2019-02-08T04:28:39.505Z,1009.58
2019-02-08T04:29:39.255Z,1009.63
2019-02-08T04:30:39.225Z,1009.53
2019-02-08T04:31:39.321Z,1009.52
2019-02-08T04:32:39.165Z,1009.50
2019-02-08T04:33:39.224Z,1009.53
2019-02-08T04:34:39.115Z,1009.55
2019-02-08T04:35:39.075Z,1009.61
2019-02-08T04:36:39.053Z,1009.53
2019-02-08T04:37:39.152Z,1009.59
2019-02-08T04:38:39.001Z,1009.59
2019-02-08T04:39:39.074Z,1009.60
2019-02-08T04:40:38.953Z,1009.57
2019-02-08T04:41:38.906Z,1009.54
2019-02-08T04:42:38.975Z,1009.49
2019-02-08T04:43:38.848Z,1009.53
2019-02-08T04:44:38.896Z,1009.49
2019-02-08T04:45:38.796Z,1009.48
2019-02-08T04:46:38.773Z,1009.48
2019-02-08T04:47:38.743Z,1009.48
2019-02-08T04:48:38.815Z,1009.48
2019-02-08T04:49:38.674Z,1009.46
2019-02-08T04:50:38.724Z,1009.44
2019-02-08T04:51:38.617Z,1009.45
2019-02-08T04:52:38.585Z,1009.45
2019-02-08T04:53:38.645Z,1009.42
2019-02-08T04:54:38.709Z,1009.47
2019-02-08T04:55:38.563Z,1009.41
2019-02-08T04:56:38.476Z,1009.42
2019-02-08T04:57:39.581Z,1009.44
2019-02-08T04:58:38.429Z,1009.38
2019-02-08T04:59:38.506Z,1009.36
2019-02-08T05:00:38.355Z,1009.44
2019-02-08T05:01:38.402Z,1009.37
2019-02-08T05:02:38.313Z,1009.39
2019-02-08T05:03:38.267Z,1009.34
2019-02-08T05:04:38.255Z,1009.33
2019-02-08T05:05:38.333Z,1009.30
2019-02-08T05:06:38.193Z,1009.33
2019-02-08T05:07:38.245Z,1009.33
2019-02-08T05:08:38.129Z,1009.32
2019-02-08T05:09:38.096Z,1009.32
2019-02-08T05:10:38.161Z,1009.28
2019-02-08T05:11:38.032Z,1009.34
2019-02-08T05:12:38.067Z,1009.27
2019-02-08T05:13:37.974Z,1009.33
2019-02-08T05:14:37.955Z,1009.28
2019-02-08T05:15:37.916Z,1009.32
2019-02-08T05:16:38.001Z,1009.33
2019-02-08T05:17:37.876Z,1009.33
2019-02-08T05:18:37.912Z,1009.35
2019-02-08T05:19:37.812Z,1009.28
2019-02-08T05:20:37.780Z,1009.29
2019-02-08T05:21:37.824Z,1009.32
2019-02-08T05:22:37.732Z,1009.29
2019-02-08T05:23:37.857Z,1009.28
2019-02-08T05:24:37.666Z,1009.32
2019-02-08T05:25:37.640Z,1009.30
2019-02-08T05:26:37.608Z,1009.27
2019-02-08T05:27:37.664Z,1009.26
2019-02-08T05:28:37.548Z,1009.23
2019-02-08T05:29:37.677Z,1009.18
2019-02-08T05:30:37.496Z,1009.25
2019-02-08T05:31:37.460Z,1009.20
2019-02-08T05:32:37.593Z,1009.18
2019-02-08T05:33:37.450Z,1009.18
2019-02-08T05:34:37.513Z,1009.17
2019-02-08T05:35:37.351Z,1009.13
2019-02-08T05:36:37.417Z,1009.16
2019-02-08T05:37:37.299Z,1009.24
2019-02-08T05:38:37.435Z,1009.24
2019-02-08T05:39:37.476Z,1009.22
2019-02-08T05:40:37.344Z,1009.18
2019-02-08T05:41:37.176Z,1009.18
2019-02-08T05:42:37.153Z,1009.14
2019-02-08T05:43:37.116Z,1009.15
2019-02-08T05:44:37.272Z,1009.24
2019-02-08T05:45:37.053Z,1009.14
2019-02-08T05:46:37.184Z,1009.14
2019-02-08T05:47:37.005Z,1009.20
2019-02-08T05:48:36.978Z,1009.21
2019-02-08T05:49:37.103Z,1009.20
2019-02-08T05:50:36.914Z,1009.17
2019-02-08T05:51:37.021Z,1009.24
2019-02-08T05:52:36.854Z,1009.13
2019-02-08T05:53:36.823Z,1009.14
2019-02-08T05:54:36.793Z,1009.07
2019-02-08T05:55:36.938Z,1009.11
2019-02-08T05:56:36.760Z,1009.14
2019-02-08T05:57:36.846Z,1009.11
2019-02-08T05:58:36.685Z,1009.11
2019-02-08T05:59:36.661Z,1009.03
2019-02-08T06:00:36.764Z,1009.08
2019-02-08T06:01:36.597Z,1009.05
2019-02-08T06:02:36.689Z,1009.03
2019-02-08T06:03:36.536Z,1009.10
2019-02-08T06:04:36.516Z,1009.08
2019-02-08T06:05:36.497Z,1009.06
2019-02-08T06:06:36.604Z,1009.09
2019-02-08T06:07:36.423Z,1009.04
2019-02-08T06:08:36.514Z,1009.03
2019-02-08T06:09:36.369Z,1008.95
2019-02-08T06:10:36.345Z,1008.96
2019-02-08T06:11:36.304Z,1009.05
2019-02-08T06:12:36.446Z,1009.04
2019-02-08T06:13:36.267Z,1008.95
2019-02-08T06:14:36.353Z,1008.99
2019-02-08T06:15:36.198Z,1008.97
2019-02-08T06:16:36.366Z,1009.05
2019-02-08T06:17:36.145Z,1008.92
2019-02-08T06:18:36.277Z,1009.06
2019-02-08T06:19:36.098Z,1009.03
2019-02-08T06:20:36.194Z,1009.05
2019-02-08T06:21:36.195Z,1009.07
2019-02-08T06:22:35.995Z,1008.99
2019-02-08T06:23:36.115Z,1009.04
2019-02-08T06:24:35.943Z,1009.05
2019-02-08T06:25:36.025Z,1009.10
2019-02-08T06:26:35.884Z,1009.09
2019-02-08T06:27:36.035Z,1009.07
2019-02-08T06:28:35.860Z,1009.07
2019-02-08T06:29:35.955Z,1009.12
2019-02-08T06:30:35.769Z,1009.04
2019-02-08T06:31:35.865Z,1009.06
2019-02-08T06:32:35.875Z,1009.09
2019-02-08T06:33:35.693Z,1009.08
2019-02-08T06:34:35.788Z,1009.02
2019-02-08T06:35:35.627Z,1009.11
2019-02-08T06:36:35.797Z,1009.12
2019-02-08T06:37:35.563Z,1009.07
2019-02-08T06:38:35.536Z,1008.97
2019-02-08T06:39:35.715Z,1009.01
2019-02-08T06:40:35.480Z,1009.00
2019-02-08T06:41:35.528Z,1008.97
2019-02-08T06:42:35.423Z,1009.07
2019-02-08T06:43:35.395Z,1008.96
2019-02-08T06:44:35.366Z,1008.87
2019-02-08T06:45:35.447Z,1008.94
2019-02-08T06:46:35.307Z,1008.95
2019-02-08T06:47:35.370Z,1008.96
2019-02-08T06:48:35.252Z,1008.95
2019-02-08T06:49:35.228Z,1008.95
2019-02-08T06:50:35.285Z,1008.94
2019-02-08T06:51:35.170Z,1008.94
2019-02-08T06:52:35.196Z,1008.95
2019-02-08T06:53:35.103Z,1008.96
2019-02-08T06:54:35.073Z,1008.96
2019-02-08T06:55:35.049Z,1008.99
2019-02-08T06:56:35.117Z,1009.01
2019-02-08T06:57:34.985Z,1008.98
2019-02-08T06:58:35.029Z,1008.99
2019-02-08T06:59:34.934Z,1009.01
2019-02-08T07:00:34.904Z,1009.00
2019-02-08T07:01:34.949Z,1008.95
2019-02-08T07:02:34.851Z,1008.97
2019-02-08T07:03:34.863Z,1009.01
2019-02-08T07:04:34.800Z,1009.03
2019-02-08T07:05:34.771Z,1009.03
2019-02-08T07:06:34.733Z,1009.08
2019-02-08T07:07:34.790Z,1009.04
2019-02-08T07:08:34.683Z,1009.00
2019-02-08T07:09:34.697Z,1008.98
2019-02-08T07:10:34.617Z,1009.12
2019-02-08T07:11:34.594Z,1009.02
2019-02-08T07:12:34.555Z,1009.00
2019-02-08T07:13:34.628Z,1008.98
2019-02-08T07:14:34.509Z,1009.04
2019-02-08T07:15:34.537Z,1008.99
2019-02-08T07:16:34.444Z,1009.03
2019-02-08T07:17:34.546Z,1009.00
2019-02-08T07:18:34.383Z,1008.90
2019-02-08T07:19:34.456Z,1009.04
2019-02-08T07:20:34.335Z,1008.95
2019-02-08T07:21:34.376Z,1008.92
2019-02-08T07:22:34.276Z,1008.92
2019-02-08T07:23:34.384Z,1008.93
2019-02-08T07:24:34.219Z,1008.94
2019-02-08T07:25:34.296Z,1008.90
2019-02-08T07:26:34.167Z,1008.86
2019-02-08T07:27:34.204Z,1008.88
2019-02-08T07:28:34.102Z,1008.83
2019-02-08T07:29:34.226Z,1008.92
2019-02-08T07:30:34.045Z,1009.01
2019-02-08T07:31:34.137Z,1008.93
2019-02-08T07:32:33.991Z,1008.90
2019-02-08T07:33:33.955Z,1008.87
2019-02-08T07:34:33.941Z,1009.00
2019-02-08T07:35:34.080Z,1008.87
2019-02-08T07:36:33.882Z,1008.92
2019-02-08T07:37:33.982Z,1008.89
2019-02-08T07:38:33.814Z,1008.94
2019-02-08T07:39:33.784Z,1008.84
2019-02-08T07:40:33.896Z,1008.93
2019-02-08T07:41:33.735Z,1008.87
2019-02-08T07:42:33.806Z,1008.81
2019-02-08T07:43:33.682Z,1008.90
2019-02-08T07:44:33.646Z,1008.96
2019-02-08T07:45:33.615Z,1008.85
2019-02-08T07:46:33.723Z,1008.94
2019-02-08T07:47:33.558Z,1008.89
2019-02-08T07:48:33.635Z,1008.89
2019-02-08T07:49:33.493Z,1008.92
2019-02-08T07:50:33.485Z,1008.99
2019-02-08T07:51:33.576Z,1008.92
2019-02-08T07:52:33.416Z,1008.91
2019-02-08T07:53:33.471Z,1008.84
2019-02-08T07:54:33.356Z,1008.94
2019-02-08T07:55:33.326Z,1008.98
2019-02-08T07:56:33.296Z,1008.98
2019-02-08T07:57:33.395Z,1009.02
2019-02-08T07:58:33.244Z,1008.92
2019-02-08T07:59:33.304Z,1008.88
2019-02-08T08:00:33.184Z,1008.93
2019-02-08T08:01:33.155Z,1008.94
2019-02-08T08:02:33.227Z,1008.92
2019-02-08T08:03:33.103Z,1008.89
2019-02-08T08:04:33.253Z,1008.99
2019-02-08T08:05:33.045Z,1008.96
2019-02-08T08:06:33.043Z,1008.90
2019-02-08T08:07:32.992Z,1008.99
2019-02-08T08:08:33.066Z,1008.94
2019-02-08T08:09:32.935Z,1008.94
2019-02-08T08:10:33.075Z,1008.94
2019-02-08T08:11:32.895Z,1008.96
2019-02-08T08:12:32.847Z,1008.95
2019-02-08T08:13:32.818Z,1008.96
2019-02-08T08:14:32.913Z,1009.01
2019-02-08T08:15:32.754Z,1009.00
2019-02-08T08:16:32.938Z,1008.99
2019-02-08T08:17:32.704Z,1009.01
2019-02-08T08:18:32.677Z,1009.03
2019-02-08T08:19:32.838Z,1009.02
2019-02-08T08:20:32.614Z,1008.98
2019-02-08T08:21:32.745Z,1008.94
2019-02-08T08:22:32.567Z,1008.95
2019-02-08T08:23:32.535Z,1009.06
2019-02-08T08:24:33.592Z,1008.99
2019-02-08T08:25:34.173Z,1009.07
2019-02-08T08:26:32.446Z,1008.99
2019-02-08T08:27:32.585Z,1009.00
2019-02-08T08:28:32.394Z,1009.09
2019-02-08T08:29:32.369Z,1008.94
2019-02-08T08:30:32.335Z,1009.08
2019-02-08T08:31:32.505Z,1009.04
2019-02-08T08:32:32.282Z,1009.08
2019-02-08T08:33:32.430Z,1009.04
2019-02-08T08:34:32.213Z,1009.06
2019-02-08T08:35:32.335Z,1009.07
2019-02-08T08:36:32.165Z,1009.12
2019-02-08T08:37:32.344Z,1009.06
2019-02-08T08:38:32.115Z,1009.05
2019-02-08T08:39:32.253Z,1009.02
2019-02-08T08:40:32.270Z,1009.10
2019-02-08T08:41:32.032Z,1009.02
2019-02-08T08:42:32.176Z,1009.04
2019-02-08T08:43:31.966Z,1009.05
2019-02-08T08:44:32.088Z,1008.96
2019-02-08T08:45:31.915Z,1009.06
2019-02-08T08:46:32.108Z,1009.08
2019-02-08T08:47:31.854Z,1009.03
2019-02-08T08:48:32.016Z,1009.02
2019-02-08T08:49:31.795Z,1009.00
2019-02-08T08:50:31.818Z,1009.02
2019-02-08T08:51:31.836Z,1008.95
2019-02-08T08:52:31.722Z,1008.95
2019-02-08T08:53:31.751Z,1008.93
2019-02-08T08:54:31.658Z,1009.11
2019-02-08T08:55:31.769Z,1009.06
2019-02-08T08:56:31.666Z,1008.98
2019-02-08T08:57:31.664Z,1008.97
2019-02-08T08:58:31.545Z,1009.05
2019-02-08T08:59:31.586Z,1008.96
2019-02-08T09:00:31.497Z,1008.95
2019-02-08T09:01:31.499Z,1008.96
2019-02-08T09:02:31.511Z,1008.98
2019-02-08T09:03:31.406Z,1008.89
2019-02-08T09:04:31.420Z,1008.95
2019-02-08T09:05:31.372Z,1008.85
2019-02-08T09:06:31.428Z,1008.86
2019-02-08T09:07:31.298Z,1008.88
2019-02-08T09:08:31.265Z,1008.79
2019-02-08T09:09:31.366Z,1008.81
2019-02-08T09:10:31.240Z,1008.84
2019-02-08T09:11:31.254Z,1008.86
2019-02-08T09:12:31.155Z,1008.76
2019-02-08T09:13:31.134Z,1008.88
2019-02-08T09:14:31.114Z,1008.76
2019-02-08T09:15:31.201Z,1008.81
2019-02-08T09:16:31.050Z,1008.74
2019-02-08T09:17:31.106Z,1008.72
2019-02-08T09:18:30.987Z,1008.68
2019-02-08T09:19:30.968Z,1008.80
2019-02-08T09:20:31.020Z,1008.66
2019-02-08T09:21:30.919Z,1008.63
2019-02-08T09:22:30.931Z,1008.61
2019-02-08T09:23:30.845Z,1008.60
2019-02-08T09:24:30.814Z,1008.66
2019-02-08T09:25:30.810Z,1008.60
2019-02-08T09:26:30.857Z,1008.62
2019-02-08T09:27:30.734Z,1008.66
2019-02-08T09:28:30.745Z,1008.58
2019-02-08T09:29:30.699Z,1008.58
2019-02-08T09:30:30.795Z,1008.56
2019-02-08T09:31:30.627Z,1008.63
2019-02-08T09:32:30.693Z,1008.55
2019-02-08T09:33:30.576Z,1008.52
2019-02-08T09:34:31.014Z,1008.59
2019-02-08T09:35:30.518Z,1008.54
2019-02-08T09:36:30.594Z,1008.64
2019-02-08T09:37:30.483Z,1008.56
2019-02-08T09:38:30.530Z,1008.62
2019-02-08T09:39:30.411Z,1008.60
2019-02-08T09:40:30.382Z,1008.48
2019-02-08T09:41:30.357Z,1008.50
2019-02-08T09:42:30.458Z,1008.57
2019-02-08T09:43:30.296Z,1008.52
2019-02-08T09:44:30.371Z,1008.51
2019-02-08T09:45:30.252Z,1008.52
2019-02-08T09:46:30.231Z,1008.44
2019-02-08T09:47:30.286Z,1008.48
2019-02-08T09:48:30.158Z,1008.48
2019-02-08T09:49:37.506Z,1008.46
2019-02-08T09:51:34.192Z,1008.40
2019-02-08T09:52:34.133Z,1008.44
2019-02-08T09:54:38.133Z,1008.38
2019-02-08T09:55:38.083Z,1008.36
2019-02-08T09:57:42.213Z,1008.37
2019-02-08T09:58:42.092Z,1008.31
2019-02-08T10:00:46.174Z,1008.32
2019-02-08T10:01:46.102Z,1008.29
2019-02-08T10:03:50.233Z,1008.28
2019-02-08T10:04:50.133Z,1008.23
2019-02-08T10:06:54.246Z,1008.26
2019-02-08T10:07:54.145Z,1008.27
2019-02-08T10:09:58.206Z,1008.31
2019-02-08T10:10:58.223Z,1008.27
2019-02-08T10:13:02.370Z,1008.13
2019-02-08T10:14:02.175Z,1008.20
2019-02-08T10:16:06.291Z,1008.17
2019-02-08T10:17:06.133Z,1008.18
2019-02-08T10:19:10.157Z,1008.08
2019-02-08T10:20:10.274Z,1008.19
2019-02-08T10:22:03.267Z,1008.12
2019-02-08T10:23:03.052Z,1008.14
2019-02-08T10:25:07.297Z,1008.17
2019-02-08T10:26:07.084Z,1008.14
2019-02-08T10:28:11.291Z,1008.20
2019-02-08T10:29:11.082Z,1008.22
2019-02-08T10:31:15.159Z,1008.18
2019-02-08T10:32:15.273Z,1008.13
2019-02-08T10:34:19.323Z,1008.29
2019-02-08T10:35:19.153Z,1008.16
2019-02-08T10:37:24.166Z,1008.14
2019-02-08T10:38:23.974Z,1008.12
2019-02-08T10:39:24.027Z,1008.11
2019-02-08T10:40:23.904Z,1008.10
2019-02-08T10:41:30.503Z,1008.13
2019-02-08T10:42:23.844Z,1008.06
2019-02-08T10:43:23.953Z,1008.14
2019-02-08T10:44:23.813Z,1008.03
2019-02-08T10:45:23.861Z,1008.07
2019-02-08T10:46:23.735Z,1008.01
2019-02-08T10:47:23.712Z,1007.98
2019-02-08T10:48:23.786Z,1008.03
2019-02-08T10:49:23.652Z,1008.20
2019-02-08T10:50:23.793Z,1008.08
2019-02-08T10:51:23.603Z,1008.20
2019-02-08T10:52:24.690Z,1008.05
2019-02-08T10:53:23.555Z,1008.02
2019-02-08T10:54:23.727Z,1008.00
2019-02-08T10:55:23.492Z,1007.97
2019-02-08T10:56:23.634Z,1007.94
2019-02-08T10:57:23.444Z,1007.93
2019-02-08T10:58:23.412Z,1007.90
2019-02-08T10:59:23.555Z,1007.91
2019-02-08T11:00:23.364Z,1007.81
2019-02-08T11:01:23.465Z,1007.89
2019-02-08T11:02:23.314Z,1007.98
2019-02-08T11:03:23.281Z,1007.85
2019-02-08T11:04:23.255Z,1007.84
2019-02-08T11:05:23.394Z,1008.00
2019-02-08T11:06:23.203Z,1007.86
2019-02-08T11:07:27.847Z,1007.84
2019-02-08T11:08:23.157Z,1007.88
2019-02-08T11:09:23.113Z,1007.72
2019-02-08T11:10:23.094Z,1007.73
2019-02-08T11:11:23.236Z,1007.87
2019-02-08T11:12:23.044Z,1007.75
2019-02-08T11:13:23.144Z,1007.72
2019-02-08T11:14:22.990Z,1007.66
2019-02-08T11:15:23.973Z,1007.64
2019-02-08T11:16:22.934Z,1007.62
2019-02-08T11:17:23.001Z,1007.67
2019-02-08T11:18:22.906Z,1007.62
2019-02-08T11:19:22.875Z,1007.64
2019-02-08T11:20:22.837Z,1007.68
2019-02-08T11:21:22.900Z,1007.68
2019-02-08T11:22:22.782Z,1007.51
2019-02-08T11:23:22.801Z,1007.57
2019-02-08T11:24:22.724Z,1007.57
2019-02-08T11:25:22.723Z,1007.39
2019-02-08T11:26:24.539Z,1007.47
2019-02-08T11:27:22.732Z,1007.39
2019-02-08T11:28:22.617Z,1007.40
2019-02-08T11:29:22.647Z,1007.43
2019-02-08T11:30:22.563Z,1007.51
2019-02-08T11:31:22.536Z,1007.51
2019-02-08T11:32:22.504Z,1007.54
2019-02-08T11:33:22.572Z,1007.35
2019-02-08T11:34:22.457Z,1007.30
2019-02-08T11:35:22.486Z,1007.32
2019-02-08T11:36:22.402Z,1007.31
2019-02-08T11:37:22.375Z,1007.30
2019-02-08T11:38:22.404Z,1007.35
2019-02-08T11:39:22.324Z,1007.31
2019-02-08T11:40:22.314Z,1007.32
2019-02-08T11:41:22.267Z,1007.37
2019-02-08T11:42:22.243Z,1007.20
2019-02-08T11:43:22.215Z,1007.18
2019-02-08T11:44:22.256Z,1007.21
2019-02-08T11:45:22.165Z,1007.18
2019-02-08T11:46:22.153Z,1007.16
2019-02-08T11:47:22.103Z,1007.17
2019-02-08T11:48:22.083Z,1007.19
2019-02-08T11:49:22.184Z,1007.12
2019-02-08T11:50:22.032Z,1007.09
2019-02-08T11:51:22.093Z,1007.07
2019-02-08T11:52:21.974Z,1007.18
2019-02-08T11:53:21.946Z,1007.23
2019-02-08T11:54:21.923Z,1007.09
2019-02-08T11:55:22.011Z,1007.13
2019-02-08T11:56:21.864Z,1007.16
2019-02-08T11:57:21.924Z,1007.09
2019-02-08T11:58:21.812Z,1007.08
2019-02-08T11:59:21.834Z,1007.12
2019-02-08T12:00:21.764Z,1007.05
2019-02-08T12:01:22.802Z,1007.04
2019-02-08T12:02:21.703Z,1007.11
2019-02-08T12:03:21.765Z,1007.03
2019-02-08T12:04:21.780Z,1006.96
2019-02-08T12:05:21.641Z,1007.05
2019-02-08T12:06:21.674Z,1007.00
2019-02-08T12:07:21.582Z,1007.02
2019-02-08T12:08:21.592Z,1007.02
2019-02-08T12:09:21.665Z,1006.92
2019-02-08T12:10:21.601Z,1006.94
2019-02-08T12:11:21.472Z,1006.95
2019-02-08T12:12:21.510Z,1006.92
2019-02-08T12:13:21.415Z,1006.96
2019-02-08T12:14:21.423Z,1006.95
2019-02-08T12:15:21.435Z,1006.86
2019-02-08T12:16:21.334Z,1006.86
2019-02-08T12:17:21.356Z,1006.91
2019-02-08T12:18:21.287Z,1006.93
2019-02-08T12:19:21.363Z,1006.91
2019-02-08T12:20:21.236Z,1006.88
2019-02-08T12:21:21.273Z,1006.88
2019-02-08T12:22:21.184Z,1006.90
2019-02-08T12:23:21.181Z,1006.84